Time;durP1;ratioP1;P1;durP2;ratioP2;P2;SDS_P1;SDS_P2;PMS_P1;PMS_P2;Temp;Humidity;BMP_temperature;BMP_pressure;BME280_temperature;BME280_humidity;BME280_pressure;Samples;Min_cycle;Max_cycle;Signal;HPM_P1;HPM_P2
2023/03/25 14:34:27;;;;;;;9.85;3.00;;;12.20;99.90;;;;;;5072063;28;20516;-71
2023/03/25 14:36:54;;;;;;;16.80;2.67;;;11.50;99.90;;;;;;5065817;28;20048;-72
2023/03/25 14:39:29;;;;;;;8.73;2.28;;;11.40;99.90;;;;;;5066152;28;20045;-69
2023/03/25 14:42:07;;;;;;;10.13;2.72;;;11.30;99.90;;;;;;5043205;28;20549;-73
2023/03/25 14:44:39;;;;;;;18.52;3.33;;;11.10;99.90;;;;;;5051438;28;20138;-71
2023/03/25 14:47:21;;;;;;;10.20;2.03;;;10.90;99.90;;;;;;5066643;28;20055;-71
2023/03/25 14:49:49;;;;;;;8.30;2.13;;;10.90;99.90;;;;;;5064288;28;20080;-70
2023/03/25 14:52:19;;;;;;;6.28;1.90;;;10.70;99.90;;;;;;5098832;28;20547;-71
2023/03/25 14:54:53;;;;;;;7.03;2.15;;;10.60;99.90;;;;;;5063895;28;20037;-71
2023/03/25 14:57:24;;;;;;;7.20;1.75;;;10.40;99.90;;;;;;5029462;28;20065;-72
2023/03/25 14:59:54;;;;;;;7.20;1.77;;;10.30;99.90;;;;;;5060870;28;20048;-72
2023/03/25 15:02:30;;;;;;;7.60;1.65;;;10.30;99.90;;;;;;5057853;28;20049;-71
2023/03/25 15:04:59;;;;;;;9.38;2.25;;;10.10;99.90;;;;;;5098215;28;20044;-70
2023/03/25 15:08:03;;;;;;;7.90;2.35;;;10.10;99.90;;;;;;5068628;28;20549;-70
2023/03/25 15:10:52;;;;;;;8.07;2.83;;;10.00;99.90;;;;;;4989822;28;20045;-69
2023/03/25 15:13:29;;;;;;;4.43;1.83;;;10.00;99.90;;;;;;5046937;28;20088;-70
2023/03/25 15:15:59;;;;;;;5.70;1.60;;;10.00;99.90;;;;;;5072933;28;20056;-69
2023/03/25 15:18:34;;;;;;;5.20;1.77;;;10.00;99.90;;;;;;5066222;28;20102;-70
2023/03/25 15:21:08;;;;;;;4.55;1.60;;;9.90;99.90;;;;;;5063573;28;20033;-66
2023/03/25 15:23:48;;;;;;;3.75;1.48;;;10.10;99.90;;;;;;5076480;28;20057;-71
2023/03/25 15:26:24;;;;;;;4.13;1.85;;;10.00;99.90;;;;;;5005909;28;20044;-70
2023/03/25 15:29:05;;;;;;;3.38;1.63;;;10.00;99.90;;;;;;5099911;28;20102;-70
2023/03/25 15:32:09;;;;;;;6.00;2.42;;;10.00;99.90;;;;;;5063965;28;20394;-68
2023/03/25 15:34:54;;;;;;;5.32;1.85;;;10.00;99.90;;;;;;5063191;28;20064;-70
2023/03/25 15:37:28;;;;;;;6.60;1.85;;;10.00;99.90;;;;;;5055043;28;20041;-70
2023/03/25 15:40:32;;;;;;;3.05;2.05;;;10.00;99.90;;;;;;5062611;28;20052;-70
2023/03/25 15:43:35;;;;;;;6.20;2.40;;;10.00;99.90;;;;;;5063441;28;20163;-70
2023/03/25 15:46:10;;;;;;;3.13;2.30;;;10.10;99.90;;;;;;5048850;28;20055;-70
2023/03/25 15:48:57;;;;;;;4.47;2.10;;;10.10;99.90;;;;;;5050887;28;20061;-70
2023/03/25 15:51:45;;;;;;;6.85;2.03;;;10.00;99.90;;;;;;5049620;28;20064;-70
2023/03/25 15:54:31;;;;;;;4.80;2.00;;;10.10;99.90;;;;;;5050436;28;20156;-69
2023/03/25 15:57:13;;;;;;;6.13;2.03;;;10.00;99.90;;;;;;5049000;28;20483;-69
2023/03/25 15:59:50;;;;;;;4.93;2.13;;;10.00;99.90;;;;;;5049082;28;20482;-70
2023/03/25 16:02:43;;;;;;;6.40;3.75;;;9.90;99.90;;;;;;5033084;28;20049;-70
2023/03/25 16:05:12;;;;;;;6.00;1.92;;;9.90;99.90;;;;;;5049094;28;20079;-70
2023/03/25 16:07:41;;;;;;;14.68;4.32;;;9.80;99.90;;;;;;5037226;28;20037;-69
2023/03/25 16:10:26;;;;;;;10.75;3.13;;;9.80;99.90;;;;;;5048435;28;20966;-69
2023/03/25 16:12:52;;;;;;;10.75;4.32;;;9.80;99.90;;;;;;5048108;28;20041;-70
2023/03/25 16:15:27;;;;;;;7.07;3.65;;;9.70;99.90;;;;;;5050455;28;20032;-70
2023/03/25 16:17:54;;;;;;;6.15;2.00;;;9.70;99.90;;;;;;5050239;28;20047;-70
2023/03/25 16:20:26;;;;;;;7.10;2.47;;;9.70;99.90;;;;;;5050100;28;20044;-69
2023/03/25 16:22:55;;;;;;;6.03;2.03;;;9.70;99.90;;;;;;5049682;28;20471;-70
2023/03/25 16:25:34;;;;;;;8.77;2.00;;;9.70;99.90;;;;;;5050467;28;20561;-70
2023/03/25 16:28:01;;;;;;;4.15;2.60;;;9.70;99.90;;;;;;5049151;28;20489;-70
2023/03/25 16:30:38;;;;;;;8.65;2.92;;;9.60;99.90;;;;;;5049555;28;20053;-68
2023/03/25 16:33:09;;;;;;;4.13;2.20;;;9.70;99.90;;;;;;5049690;28;20040;-68
2023/03/25 16:35:38;;;;;;;4.88;2.08;;;9.60;99.90;;;;;;5049627;28;20063;-68
2023/03/25 16:38:05;;;;;;;4.35;1.48;;;9.70;99.90;;;;;;5049288;28;20040;-68
2023/03/25 16:40:38;;;;;;;10.88;4.70;;;9.60;99.90;;;;;;5050869;28;20041;-67
2023/03/25 16:43:13;;;;;;;9.60;3.20;;;9.60;99.90;;;;;;5050033;28;20418;-67
2023/03/25 16:45:39;;;;;;;9.38;3.90;;;9.60;99.90;;;;;;5048611;28;20037;-67
2023/03/25 16:48:09;;;;;;;7.97;2.50;;;9.60;99.90;;;;;;5051342;28;20056;-68
2023/03/25 16:50:36;;;;;;;4.72;2.38;;;9.60;99.90;;;;;;5049267;28;20041;-68
2023/03/25 16:53:02;;;;;;;10.85;2.88;;;9.60;99.90;;;;;;5048496;28;20056;-67
2023/03/25 16:55:40;;;;;;;11.68;3.95;;;9.60;99.90;;;;;;5049051;28;20422;-67
2023/03/25 16:58:15;;;;;;;13.85;5.95;;;9.60;99.90;;;;;;5049248;28;20132;-67
2023/03/25 17:00:42;;;;;;;10.23;3.63;;;9.70;99.90;;;;;;5049495;28;20044;-67
2023/03/25 17:03:19;;;;;;;12.38;3.80;;;9.70;99.90;;;;;;5049624;28;20044;-68
2023/03/25 17:06:01;;;;;;;12.48;4.28;;;9.60;99.90;;;;;;5033373;28;20438;-68
2023/03/25 17:08:27;;;;;;;15.45;3.03;;;9.60;99.90;;;;;;5048343;28;20048;-68
2023/03/25 17:10:58;;;;;;;17.15;3.40;;;9.60;99.90;;;;;;5047473;28;20128;-67
2023/03/25 17:13:44;;;;;;;11.50;2.67;;;9.60;99.90;;;;;;5049032;28;20045;-68
2023/03/25 17:16:10;;;;;;;12.07;3.75;;;9.60;99.90;;;;;;5050026;28;20110;-68
2023/03/25 17:18:38;;;;;;;11.75;3.22;;;9.60;99.90;;;;;;5049144;28;20053;-67
2023/03/25 17:21:10;;;;;;;12.15;2.95;;;9.60;99.90;;;;;;5049468;28;20079;-69
2023/03/25 17:23:41;;;;;;;11.18;2.85;;;9.60;99.90;;;;;;5049712;28;20041;-70
2023/03/25 17:26:10;;;;;;;7.28;2.55;;;9.70;99.90;;;;;;5048142;28;20037;-70
2023/03/25 17:28:37;;;;;;;8.05;2.58;;;9.70;99.90;;;;;;5047467;28;20049;-69
2023/03/25 17:31:24;;;;;;;9.95;2.90;;;9.70;99.90;;;;;;5031002;28;20045;-69
2023/03/25 17:34:05;;;;;;;7.00;2.80;;;9.70;99.90;;;;;;5047247;28;20065;-70
